Latest Coastal Weather Observations for Port Pirie Airport AWS

IDS60701

Issued at 3:41 am CST Tuesday 28 June 2022 (issued every 10 minutes, with the page automatically refreshed every 10 minutes)

About coastal observations | Map of coastal stations | Coastal observations for SA | Marine services | Other Formats
Station Details ID: 021139 Name: PORT PIRIE AERODROME AWS Lat: -33.24 Lon: 138.00 Height: 12.0 m
Data from the previous 72 hours. | See also: Recent months for locations in South Australia
Date/Time
CST
Wind Sea
Height
m
Swell Vis
km
Cloud Weather Temp
°C
Press
MSL
hPa
Rain since
9am
mm
Dir  Spd
kts
Gust
kts
Height
m
Period
s
Dir
28/03:30am NNE 4 4 - - - - - - - 2.7 1029.4 -
28/03:00am NNE 5 6 - - - - - - - 2.6 1029.3 0.0
28/02:30am N 6 7 - - - - - - - 2.9 1029.8 -
28/02:00am N 1 5 - - - - - - - 2.6 1030.0 -
28/01:30am CALM 0 0 - - - - - - - 2.5 1030.2 -
28/01:00am CALM 0 0 - - - - - - - 2.8 1030.5 -
28/12:30am NE 3 4 - - - - - - - 4.1 1030.9 -
28/12:00am ENE 4 5 - - - - - - - 3.5 1030.9 -
 
Date/Time
CST
Wind Sea
Height
m
Swell Vis
km
Cloud Weather Temp
°C
Press
MSL
hPa
Rain since
9am
mm
Dir  Spd
kts
Gust
kts
Height
m
Period
s
Dir
27/11:30pm ESE 3 5 - - - - - - - 3.5 1031.3 -
27/11:00pm NNE 4 5 - - - - - - - 5.0 1031.6 -
27/10:30pm NNE 4 5 - - - - - - - 5.4 1031.9 -
27/10:00pm E 5 7 - - - - - - - 6.5 1032.2 -
27/09:30pm E 5 7 - - - - - - - 6.3 1032.6 -
27/09:00pm ESE 8 9 - - - - - - - 6.6 1032.7 0.2
27/08:30pm ESE 9 11 - - - - - - - 6.4 1032.8 -
27/08:00pm ESE 7 8 - - - - - - - 6.7 1032.9 -
27/07:30pm ESE 6 6 - - - - - - - 7.8 1032.9 -
27/07:00pm E 4 5 - - - - - - - 9.1 1032.7 -
27/06:30pm ESE 4 5 - - - - - - - 8.9 1032.2 -
27/06:00pm SSW 6 6 - - - - - - - 10.0 1032.1 -
27/05:30pm SW 6 7 - - - - - - - 11.2 1032.0 -
27/05:00pm SW 6 7 - - - - - - - 13.3 1031.9 -
27/04:30pm SW 7 8 - - - - - - - 14.6 1031.9 -
27/04:00pm SW 6 9 - - - - - - - 15.4 1032.0 -
27/03:30pm SW 7 11 - - - - - - - 15.8 1032.0 -
27/03:00pm SW 5 8 - - - - - - - 16.3 1032.3 -
27/02:00pm NW 3 5 - - - - - - - 16.4 1032.7 0.0
27/01:30pm ENE 3 5 - - - - - - - 15.9 1033.0 0.0
27/01:00pm S 2 6 - - - - - - - 15.1 1033.6 0.0
27/12:30pm ESE 3 5 - - - - - - - 15.1 1034.1 0.0
27/12:00pm NNW 2 5 - - - - - - - 14.7 1034.8 0.0
27/11:30am NW 3 4 - - - - - - - 13.7 1035.2 0.0
27/11:00am NW 3 5 - - - - - - - 13.6 1035.5 0.0
27/10:30am S 3 4 - - - - - - - 11.9 1035.3 0.0
27/10:00am SSE 3 4 - - - - - - - 11.6 1035.4 0.0
27/09:30am SE 5 6 - - - - - - - 10.0 1035.4 0.0
27/09:00am ESE 5 6 - - - - - - Recent precip. 8.2 1035.3 0.2
27/08:30am SE 7 8 - - - - - - - 6.0 1035.0 0.2
27/08:00am SE 9 11 - - - - - - - 4.4 1034.9 0.0
27/07:30am SE 9 10 - - - - - - - 3.7 1034.4 0.0
27/07:00am SSE 10 11 - - - - - - - 3.7 1034.2 0.0
27/06:30am SE 9 10 - - - - - - - 3.5 1033.8 0.0
27/06:00am SE 8 9 - - - - - - - 3.6 1033.5 0.0
27/05:30am SE 8 9 - - - - - - - 3.8 1033.2 0.0
27/05:00am SE 9 10 - - - - - - - 4.2 1033.1 0.0
27/04:30am SE 9 10 - - - - - - - 4.8 1033.1 0.0
27/04:00am SSE 9 9 - - - - - - - 4.6 1033.1 0.0
27/03:30am SE 9 10 - - - - - - - 5.2 1033.0 0.0
27/03:00am SE 8 9 - - - - - - - 4.9 1033.1 0.0
27/02:30am SE 8 8 - - - - - - - 4.9 1033.3 0.0
27/02:00am SSE 7 9 - - - - - - - 5.4 1033.2 0.0
27/01:30am SSE 8 9 - - - - - - - 5.4 1033.2 0.0
27/01:00am SSE 9 9 - - - - - - - 5.4 1033.2 0.0
27/12:30am SE 8 8 - - - - - - - 6.6 1033.2 0.0
27/12:00am SSE 6 8 - - - - - - - 6.3 1033.3 0.0
 
Date/Time
CST
Wind Sea
Height
m
Swell Vis
km
Cloud Weather Temp
°C
Press
MSL
hPa
Rain since
9am
mm
Dir  Spd
kts
Gust
kts
Height
m
Period
s
Dir
26/11:30pm SE 8 9 - - - - - - - 6.1 1033.2 0.0
26/11:00pm SSE 7 7 - - - - - - - 6.5 1032.9 0.0
26/10:30pm SSE 6 7 - - - - - - - 7.0 1032.8 0.0
26/10:00pm SSE 6 7 - - - - - - - 7.8 1032.5 0.0
26/09:30pm SE 6 7 - - - - - - - 8.7 1032.3 0.0
26/09:00pm E 6 6 - - - - - - - 9.2 1031.9 0.0
26/08:30pm SSE 7 8 - - - - - - - 9.8 1031.9 0.0
26/08:00pm SSE 8 9 - - - - - - - 9.5 1032.0 0.0
26/07:30pm S 7 7 - - - - - - - 9.9 1031.6 0.0
26/07:00pm S 7 8 - - - - - - - 10.6 1031.2 0.0
26/06:30pm SSW 7 8 - - - - - - - 11.4 1031.0 0.0
26/06:00pm SSW 9 11 - - - - - - - 12.2 1030.4 0.0
26/05:30pm SSW 9 11 - - - - - - - 13.0 1030.0 0.0
26/05:00pm SSW 11 13 - - - - - - - 14.3 1029.6 0.0
26/04:30pm SSW 11 14 - - - - - - - 15.5 1029.3 0.0
26/04:00pm SSW 13 17 - - - - - - - 15.9 1029.1 0.0
26/03:30pm SSW 12 15 - - - - - - - 16.5 1028.8 0.0
26/03:00pm SW 12 16 - - - - - - - 16.6 1028.8 0.0
26/02:30pm SW 12 16 - - - - - - - 16.8 1028.6 0.0
26/02:00pm SW 11 15 - - - - - - - 16.8 1028.7 0.0
26/01:30pm W 7 11 - - - - - - - 15.7 1028.7 0.0
26/01:00pm NW 7 10 - - - - - - - 15.8 1028.8 0.0
26/12:30pm NW 8 12 - - - - - - - 15.6 1028.9 0.0
26/12:00pm NNW 7 9 - - - - - - - 15.6 1029.3 0.0
26/11:30am NW 5 8 - - - - - - - 15.3 1029.8 0.0
26/11:00am NW 5 8 - - - - - - - 14.0 1030.2 0.0
26/10:30am NNW 7 9 - - - - - - - 14.1 1030.0 0.0
26/10:00am NNW 7 8 - - - - - - - 13.9 1029.8 0.0
26/09:30am NNW 6 8 - - - - - - - 12.8 1029.8 0.0
26/09:00am NNW 4 6 - - - - - - - 12.2 1029.4 0.0
26/08:30am NNW 6 6 - - - - - - - 11.3 1029.2 0.0
26/08:00am NNW 6 7 - - - - - - - 10.9 1028.6 0.0
26/07:30am N 7 8 - - - - - - - 10.5 1028.2 0.0
26/07:00am N 7 8 - - - - - - - 10.5 1028.0 0.0
26/06:30am N 6 7 - - - - - - - 9.3 1027.4 0.0
26/06:00am NNE 7 7 - - - - - - - 8.0 1027.1 0.0
26/05:30am NNE 6 6 - - - - - - - 8.5 1026.9 0.0
26/05:00am N 7 7 - - - - - - - 8.0 1026.7 0.0
26/04:30am N 6 7 - - - - - - - 7.9 1026.7 0.0
26/04:00am N 5 6 - - - - - - - 7.3 1026.5 0.0
26/03:30am NNE 4 5 - - - - - - - 6.8 1026.5 0.0
26/03:00am N 5 5 - - - - - - - 8.0 1026.3 0.0
26/02:30am N 5 6 - - - - - - - 9.2 1026.3 0.0
26/02:00am NNW 3 5 - - - - - - - 8.0 1026.3 0.0
26/01:30am N 5 6 - - - - - - - 8.9 1026.1 0.0
26/01:00am NNE 4 6 - - - - - - - 9.4 1026.0 0.0
26/12:30am NE 6 7 - - - - - - - 10.0 1026.0 0.0
26/12:00am NE 5 7 - - - - - - - 10.4 1026.1 0.0
 
Date/Time
CST
Wind Sea
Height
m
Swell Vis
km
Cloud Weather Temp
°C
Press
MSL
hPa
Rain since
9am
mm
Dir  Spd
kts
Gust
kts
Height
m
Period
s
Dir
25/11:30pm NW 5 6 - - - - - - - 11.4 1026.1 0.0
25/11:00pm NW 6 6 - - - - - - - 11.2 1026.1 0.0
25/10:30pm NNW 4 4 - - - - - - - 10.5 1026.2 0.0
25/10:00pm WSW 5 8 - - - - - - - 10.7 1026.1 0.0
25/09:30pm S 3 4 - - - - - - - 10.8 1025.9 0.0
25/09:00pm SE 3 4 - - - - - - - 10.7 1025.4 0.0
25/08:30pm CALM 0 0 - - - - - - - 10.8 1025.2 0.0
25/08:00pm CALM 0 0 - - - - - - - 10.4 1025.0 0.0
25/07:30pm NE 3 5 - - - - - - - 10.4 1024.8 0.0
25/07:00pm NNE 5 6 - - - - - - - 11.8 1024.5 0.0
25/06:30pm N 5 6 - - - - - - - 12.1 1024.3 0.0
25/06:00pm N 5 5 - - - - - - - 12.8 1023.9 0.0
25/05:30pm N 6 7 - - - - - - - 12.4 1023.5 0.0
25/05:00pm NW 3 3 - - - - - - - 15.2 1023.5 0.0
25/04:30pm WNW 3 4 - - - - - - - 16.2 1023.4 0.0
25/04:00pm W 6 8 - - - - - - - 16.1 1023.4 0.0
25/03:30pm SW 6 9 - - - - - - - 16.6 1023.3 0.0
25/03:00pm WSW 5 9 - - - - - - - 16.6 1023.3 0.0
25/02:30pm W 9 14 - - - - - - - 16.6 1023.3 0.0
25/02:00pm W 8 13 - - - - - - - 16.0 1023.5 0.0
25/01:30pm WNW 8 12 - - - - - - - 15.5 1023.7 0.0
25/01:00pm NNW 9 13 - - - - - - - 16.3 1023.9 0.0
25/12:30pm WNW 7 9 - - - - - - - 16.2 1024.1 0.0
25/12:00pm NW 7 11 - - - - - - - 15.7 1024.3 0.0
25/11:30am NW 7 9 - - - - - - - 15.3 1024.6 0.0
25/11:00am WNW 6 9 - - - - - - - 14.7 1024.7 0.0
25/10:30am WNW 7 10 - - - - - - - 14.2 1024.9 0.0
25/10:00am NNW 8 9 - - - - - - - 13.4 1024.7 0.0
25/09:30am WNW 5 7 - - - - - - - 12.0 1024.4 0.0
25/09:00am NNW 8 10 - - - - - - - 11.9 1024.1 1.0
25/08:30am NNW 7 9 - - - - - - - 11.5 1024.0 1.0
25/08:00am NNW 6 7 - - - - - - - 11.0 1023.8 1.0
25/07:30am N 5 7 - - - - - - - 9.8 1023.4 1.0
25/07:00am N 6 7 - - - - - - - 8.5 1023.2 1.0
25/06:30am N 5 6 - - - - - - - 9.1 1022.8 1.0
25/06:00am NNW 4 5 - - - - - - - 9.5 1022.5 1.0
25/05:30am N 4 5 - - - - - - - 10.4 1022.1 1.0
25/05:00am N 5 6 - - - - - - - 10.7 1021.7 1.0
25/04:30am NNE 4 4 - - - - - - - 10.5 1021.6 1.0
25/04:00am N 4 4 - - - - - - - 11.3 1021.4 1.0

Other formats

Comma delimited format used in spreadsheet applications
http://www.bom.gov.au/fwo/IDS60701/IDS60701.99749.axf

JavaScript Object Notation format (JSON) in row-major order
http://www.bom.gov.au/fwo/IDS60701/IDS60701.99749.json

Data quality

Most of these data are generated automatically and are frequently updated. Quality checks on data are not normally performed. It is possible for incorrect values to appear. Refer to information at About Latest Weather Observations and please check the disclaimer before using these data.